»·PEaware :: N1759T 58CL-KSAN

N1759T :: 58CL-KSAN

FLIGHT INFORMATION

Flight Status: Arrived
Operator: Privately registered:
United States
More flights under this callsign
Pilot: Lev B. (11997)
Aircraft: CESSNA 310
(C310)
More flights by this aircraft type
Origin: 58CL Borrego Air Ranch
United States
Destination: KSAN San Diego Intl-Lindbergh
United States
More flights between these airports :: More routes between these airports
Route: +KARRO V460 HAILE
File this flight plan on PilotEdge
Remarks:
Altitude:
(Current/Filed)
6,500ft
Speed:
(Current/Filed)
179kts
Departed: 05-Oct-18 04:58 PM
Arrived: 05-Oct-18 05:30 PM
Distance/Time
Traveled:
53nm/0:32
Distance/Time
To Go:
Arrived

Flight Plot

Page will automatically refresh every two minutes.

Flight plan parsing failed; only flown route is shown


Map Options




Map Legend


Flown Route
Filed Route
Departure Airport
Arrival Airport
Navaid (VOR, NDB)
Fix

Horizontal Profiles

Position Reports

Time Latitude Longitude Heading Altitude Ground
Speed
05-Oct-18 16:52 33.191643 -116.283743 5 583ft 0kts
05-Oct-18 16:53 33.191656 -116.283742 5 583ft 0kts
05-Oct-18 16:54 33.191656 -116.283742 5 583ft 0kts
05-Oct-18 16:55 33.191656 -116.283742 5 583ft 0kts
05-Oct-18 16:56 33.191713 -116.283582 76 583ft 2kts
05-Oct-18 16:57 33.191924 -116.281887 98 583ft 12kts
05-Oct-18 16:58 33.191418 -116.277336 259 583ft 0kts
05-Oct-18 16:59 33.191418 -116.277336 259 583ft 0kts
05-Oct-18 17:00 33.191592 -116.279112 279 583ft 61kts
05-Oct-18 17:01 33.203046 -116.304950 311 2001ft 98kts
05-Oct-18 17:02 33.225092 -116.335328 312 2955ft 148kts
05-Oct-18 17:03 33.253518 -116.372987 329 3907ft 152kts
05-Oct-18 17:04 33.291005 -116.394833 335 4939ft 148kts
05-Oct-18 17:05 33.323294 -116.423137 317 5970ft 143kts
05-Oct-18 17:06 33.313599 -116.463170 222 7005ft 146kts
05-Oct-18 17:07 33.281437 -116.491451 215 8029ft 142kts
05-Oct-18 17:08 33.247841 -116.515891 215 8853ft 149kts
05-Oct-18 17:09 33.212475 -116.541241 215 9573ft 152kts
05-Oct-18 17:10 33.176530 -116.566753 215 10297ft 152kts
05-Oct-18 17:11 33.137676 -116.594623 215 10230ft 187kts
05-Oct-18 17:12 33.088654 -116.590653 148 9809ft 202kts
05-Oct-18 17:13 33.036546 -116.580300 187 9908ft 178kts
05-Oct-18 17:14 32.991858 -116.585483 188 10117ft 158kts
05-Oct-18 17:15 32.948240 -116.590826 188 10086ft 166kts
05-Oct-18 17:16 32.904755 -116.596257 188 9986ft 169kts
05-Oct-18 17:17 32.863013 -116.608599 218 9339ft 181kts
05-Oct-18 17:18 32.829296 -116.640564 224 8959ft 145kts
05-Oct-18 17:19 32.800689 -116.669280 223 8604ft 160kts
05-Oct-18 17:20 32.764952 -116.706138 223 8155ft 183kts
05-Oct-18 17:21 32.726425 -116.746449 224 7617ft 191kts
05-Oct-18 17:22 32.686282 -116.788604 223 7048ft 194kts
05-Oct-18 17:23 32.667881 -116.844483 262 6521ft 186kts
05-Oct-18 17:24 32.660257 -116.903175 272 6068ft 183kts
05-Oct-18 17:25 32.682856 -116.951026 285 4922ft 149kts
05-Oct-18 17:26 32.676026 -116.999595 274 3151ft 159kts
05-Oct-18 17:27 32.684820 -117.041005 316 2695ft 135kts
05-Oct-18 17:28 32.703667 -117.073346 282 3669ft 122kts
05-Oct-18 17:29 32.713839 -117.111776 287 2162ft 107kts
05-Oct-18 17:30 32.722461 -117.144097 285 698ft 90kts
05-Oct-18 17:31 32.729784 -117.174386 286 175ft 88kts
05-Oct-18 17:32 32.734298 -117.188006 15 16ft 14kts
05-Oct-18 17:33 32.734455 -117.187652 100 16ft 9kts
05-Oct-18 17:34 32.734523 -117.183704 24 16ft 12kts
05-Oct-18 17:35 32.735053 -117.183640 325 16ft 0kts
05-Oct-18 17:36 32.735053 -117.183640 325 16ft 0kts
05-Oct-18 17:37 32.735053 -117.183640 325 16ft 0kts
05-Oct-18 17:38 32.735053 -117.183640 325 16ft 0kts
05-Oct-18 17:39 32.735053 -117.183640 325 16ft 0kts
05-Oct-18 17:40 32.735053 -117.183640 325 16ft 0kts
05-Oct-18 17:41 32.735053 -117.183640 325 16ft 0kts
05-Oct-18 17:42 32.735053 -117.183640 325 16ft 0kts
05-Oct-18 17:43 32.735053 -117.183640 325 16ft 0kts
05-Oct-18 17:44 32.735053 -117.183640 325 16ft 0kts
05-Oct-18 17:45 32.735053 -117.183640 325 16ft 0kts
05-Oct-18 17:46 32.735053 -117.183640 325 16ft 0kts

Navigation Log

Ident Type
Flight plan parsing failed, navigation log unavailable